sensor_id;sensor_type;location;lat;lon;timestamp;pressure;altitude;pressure_sealevel;temperature;humidity
6136;BME280;24008;42.664;23.372;2024-03-29T00:01:03;94483.00;;;11.35;52.41
6136;BME280;24008;42.664;23.372;2024-03-29T00:03:29;94395.84;;;10.77;52.82
6136;BME280;24008;42.664;23.372;2024-03-29T00:05:54;94442.84;;;11.02;52.65
6136;BME280;24008;42.664;23.372;2024-03-29T00:08:20;94512.59;;;11.38;53.29
6136;BME280;24008;42.664;23.372;2024-03-29T00:10:46;94298.53;;;10.01;53.28
6136;BME280;24008;42.664;23.372;2024-03-29T00:13:12;94488.44;;;11.06;53.50
6136;BME280;24008;42.664;23.372;2024-03-29T00:15:38;94510.91;;;11.21;54.07
6136;BME280;24008;42.664;23.372;2024-03-29T00:18:06;94420.28;;;10.54;54.10
6136;BME280;24008;42.664;23.372;2024-03-29T00:20:32;94387.97;;;10.27;54.26
6136;BME280;24008;42.664;23.372;2024-03-29T00:22:58;94538.13;;;11.04;54.60
6136;BME280;24008;42.664;23.372;2024-03-29T00:25:24;94427.19;;;10.35;54.64
6136;BME280;24008;42.664;23.372;2024-03-29T00:27:50;94304.66;;;9.55;54.23
6136;BME280;24008;42.664;23.372;2024-03-29T00:30:15;94493.50;;;10.63;54.67
6136;BME280;24008;42.664;23.372;2024-03-29T00:32:41;94431.44;;;10.17;54.92
6136;BME280;24008;42.664;23.372;2024-03-29T00:35:08;94551.06;;;10.85;54.53
6136;BME280;24008;42.664;23.372;2024-03-29T00:37:34;94540.13;;;10.74;55.79
6136;BME280;24008;42.664;23.372;2024-03-29T00:40:00;94543.53;;;10.65;55.71
6136;BME280;24008;42.664;23.372;2024-03-29T00:42:26;94464.44;;;10.10;55.40
6136;BME280;24008;42.664;23.372;2024-03-29T00:44:52;94550.19;;;10.58;56.34
6136;BME280;24008;42.664;23.372;2024-03-29T00:47:17;94559.59;;;10.58;56.34
6136;BME280;24008;42.664;23.372;2024-03-29T00:49:43;94539.59;;;10.53;55.95
6136;BME280;24008;42.664;23.372;2024-03-29T00:52:10;94543.22;;;10.51;56.55
6136;BME280;24008;42.664;23.372;2024-03-29T00:54:36;94433.44;;;9.78;55.93
6136;BME280;24008;42.664;23.372;2024-03-29T00:57:02;94546.25;;;10.46;56.37
6136;BME280;24008;42.664;23.372;2024-03-29T00:59:28;94376.59;;;9.41;56.55
6136;BME280;24008;42.664;23.372;2024-03-29T01:01:54;94554.97;;;10.43;56.87
6136;BME280;24008;42.664;23.372;2024-03-29T01:04:19;94551.91;;;10.40;56.70
6136;BME280;24008;42.664;23.372;2024-03-29T01:06:45;94563.47;;;10.44;56.28
6136;BME280;24008;42.664;23.372;2024-03-29T01:09:12;94552.28;;;10.45;56.42
6136;BME280;24008;42.664;23.372;2024-03-29T01:11:38;94519.78;;;10.20;56.00
6136;BME280;24008;42.664;23.372;2024-03-29T01:14:04;94547.31;;;10.43;56.50
6136;BME280;24008;42.664;23.372;2024-03-29T01:16:30;94343.63;;;9.02;56.39
6136;BME280;24008;42.664;23.372;2024-03-29T01:18:57;94560.91;;;10.44;56.51
6136;BME280;24008;42.664;23.372;2024-03-29T01:21:23;94496.22;;;9.98;56.91
6136;BME280;24008;42.664;23.372;2024-03-29T01:23:49;94578.78;;;10.44;56.94
6136;BME280;24008;42.664;23.372;2024-03-29T01:26:16;94482.44;;;9.82;56.73
6136;BME280;24008;42.664;23.372;2024-03-29T01:28:42;94575.22;;;10.37;57.22
6136;BME280;24008;42.664;23.372;2024-03-29T01:31:08;94528.41;;;10.09;56.71
6136;BME280;24008;42.664;23.372;2024-03-29T01:33:34;94443.00;;;9.49;57.04
6136;BME280;24008;42.664;23.372;2024-03-29T01:36:00;94573.47;;;10.37;56.30
6136;BME280;24008;42.664;23.372;2024-03-29T01:38:26;94525.31;;;10.05;56.16
6136;BME280;24008;42.664;23.372;2024-03-29T01:40:51;94412.44;;;9.39;56.25
6136;BME280;24008;42.664;23.372;2024-03-29T01:43:18;94586.84;;;10.49;56.02
6136;BME280;24008;42.664;23.372;2024-03-29T01:45:47;94557.88;;;10.31;55.71
6136;BME280;24008;42.664;23.372;2024-03-29T01:48:15;94583.97;;;10.52;56.37
6136;BME280;24008;42.664;23.372;2024-03-29T01:50:42;94509.53;;;9.92;56.05
6136;BME280;24008;42.664;23.372;2024-03-29T01:53:10;94616.34;;;10.61;55.63
6136;BME280;24008;42.664;23.372;2024-03-29T01:55:38;94599.69;;;10.57;55.98
6136;BME280;24008;42.664;23.372;2024-03-29T01:58:04;94532.97;;;10.05;56.83
6136;BME280;24008;42.664;23.372;2024-03-29T02:00:36;94402.84;;;9.23;56.21
6136;BME280;24008;42.664;23.372;2024-03-29T02:03:04;94532.75;;;9.99;57.09
6136;BME280;24008;42.664;23.372;2024-03-29T02:05:35;94553.69;;;10.02;57.43
6136;BME280;24008;42.664;23.372;2024-03-29T02:08:03;94646.75;;;10.37;57.30
6136;BME280;24008;42.664;23.372;2024-03-29T02:10:30;94608.22;;;10.11;57.05
6136;BME280;24008;42.664;23.372;2024-03-29T02:12:57;94647.97;;;10.33;57.35
6136;BME280;24008;42.664;23.372;2024-03-29T02:15:24;94619.53;;;10.08;57.81
6136;BME280;24008;42.664;23.372;2024-03-29T02:17:52;94649.75;;;10.23;58.22
6136;BME280;24008;42.664;23.372;2024-03-29T02:20:19;94657.94;;;10.17;58.23
6136;BME280;24008;42.664;23.372;2024-03-29T02:22:53;94666.03;;;10.12;58.01
6136;BME280;24008;42.664;23.372;2024-03-29T02:25:21;94446.69;;;8.71;59.11
6136;BME280;24008;42.664;23.372;2024-03-29T02:27:48;94667.28;;;9.98;58.58
6136;BME280;24008;42.664;23.372;2024-03-29T02:30:16;94676.56;;;9.90;59.81
6136;BME280;24008;42.664;23.372;2024-03-29T02:32:42;94521.00;;;8.85;60.20
6136;BME280;24008;42.664;23.372;2024-03-29T02:35:10;94687.72;;;9.79;59.84
6136;BME280;24008;42.664;23.372;2024-03-29T02:37:36;94353.56;;;7.62;59.63
6136;BME280;24008;42.664;23.372;2024-03-29T02:40:04;94509.72;;;8.49;59.99
6136;BME280;24008;42.664;23.372;2024-03-29T02:42:32;94671.38;;;9.43;60.96
6136;BME280;24008;42.664;23.372;2024-03-29T02:44:59;94702.13;;;9.61;60.69
6136;BME280;24008;42.664;23.372;2024-03-29T02:47:26;94695.81;;;9.55;61.10
6136;BME280;24008;42.664;23.372;2024-03-29T02:49:52;94698.66;;;9.52;60.91
6136;BME280;24008;42.664;23.372;2024-03-29T02:52:18;94660.25;;;9.15;61.38
6136;BME280;24008;42.664;23.372;2024-03-29T02:54:44;94634.91;;;9.04;60.92
6136;BME280;24008;42.664;23.372;2024-03-29T02:57:11;94732.88;;;9.40;61.73
6136;BME280;24008;42.664;23.372;2024-03-29T02:59:39;94652.69;;;8.94;62.01
6136;BME280;24008;42.664;23.372;2024-03-29T03:02:05;94536.72;;;8.12;62.60
6136;BME280;24008;42.664;23.372;2024-03-29T03:04:31;94641.69;;;8.75;62.37
6136;BME280;24008;42.664;23.372;2024-03-29T03:06:58;94682.34;;;8.86;62.64
6136;BME280;24008;42.664;23.372;2024-03-29T03:09:44;94566.44;;;8.11;63.56
6136;BME280;24008;42.664;23.372;2024-03-29T03:12:31;94718.84;;;8.96;64.16
6136;BME280;24008;42.664;23.372;2024-03-29T03:14:59;94729.47;;;8.91;64.48
6136;BME280;24008;42.664;23.372;2024-03-29T03:17:26;94720.31;;;8.89;64.32
6136;BME280;24008;42.664;23.372;2024-03-29T03:19:53;94656.91;;;8.46;63.77
6136;BME280;24008;42.664;23.372;2024-03-29T03:22:19;94729.97;;;8.85;64.34
6136;BME280;24008;42.664;23.372;2024-03-29T03:24:45;94735.88;;;8.86;63.94
6136;BME280;24008;42.664;23.372;2024-03-29T03:27:11;94757.88;;;8.87;64.90
6136;BME280;24008;42.664;23.372;2024-03-29T03:29:39;94735.88;;;8.86;64.00
6136;BME280;24008;42.664;23.372;2024-03-29T03:32:06;94614.81;;;8.11;64.16
6136;BME280;24008;42.664;23.372;2024-03-29T03:34:33;94743.63;;;8.84;64.81
6136;BME280;24008;42.664;23.372;2024-03-29T03:36:59;94767.25;;;8.86;64.02
6136;BME280;24008;42.664;23.372;2024-03-29T03:39:26;94762.97;;;8.87;63.86
6136;BME280;24008;42.664;23.372;2024-03-29T03:41:51;94766.44;;;8.86;64.58
6136;BME280;24008;42.664;23.372;2024-03-29T03:44:18;94762.28;;;8.85;64.80
6136;BME280;24008;42.664;23.372;2024-03-29T03:46:44;94638.38;;;8.04;64.69
6136;BME280;24008;42.664;23.372;2024-03-29T03:49:12;94772.59;;;8.83;65.13
6136;BME280;24008;42.664;23.372;2024-03-29T03:51:38;94709.97;;;8.41;64.96
6136;BME280;24008;42.664;23.372;2024-03-29T03:54:05;94721.13;;;8.49;65.38
6136;BME280;24008;42.664;23.372;2024-03-29T03:56:31;94784.13;;;8.78;65.35
6136;BME280;24008;42.664;23.372;2024-03-29T03:58:57;94598.81;;;7.59;64.48
6136;BME280;24008;42.664;23.372;2024-03-29T04:01:23;94650.53;;;8.00;65.30
6136;BME280;24008;42.664;23.372;2024-03-29T04:03:50;94654.09;;;8.09;64.74
6136;BME280;24008;42.664;23.372;2024-03-29T04:06:17;94787.78;;;8.85;65.14
6136;BME280;24008;42.664;23.372;2024-03-29T04:08:44;94748.94;;;8.62;64.93
6136;BME280;24008;42.664;23.372;2024-03-29T04:11:10;94797.97;;;8.85;64.84
6136;BME280;24008;42.664;23.372;2024-03-29T04:13:37;94807.09;;;8.87;65.02
6136;BME280;24008;42.664;23.372;2024-03-29T04:16:05;94721.75;;;8.32;64.22
6136;BME280;24008;42.664;23.372;2024-03-29T04:18:32;94780.78;;;8.77;64.59
6136;BME280;24008;42.664;23.372;2024-03-29T04:20:59;94826.63;;;9.08;64.10
6136;BME280;24008;42.664;23.372;2024-03-29T04:23:26;94736.00;;;8.44;63.86
6136;BME280;24008;42.664;23.372;2024-03-29T04:25:54;94786.16;;;8.84;63.98
6136;BME280;24008;42.664;23.372;2024-03-29T04:28:20;94797.03;;;8.86;64.81
6136;BME280;24008;42.664;23.372;2024-03-29T04:30:51;94831.22;;;9.14;63.60
6136;BME280;24008;42.664;23.372;2024-03-29T04:33:17;94832.56;;;9.18;63.74
6136;BME280;24008;42.664;23.372;2024-03-29T04:35:52;94633.44;;;7.81;63.80
6136;BME280;24008;42.664;23.372;2024-03-29T04:38:18;94849.09;;;9.23;63.93
6136;BME280;24008;42.664;23.372;2024-03-29T04:40:46;94850.47;;;9.27;63.73
6136;BME280;24008;42.664;23.372;2024-03-29T04:43:13;94836.09;;;9.26;63.80
6136;BME280;24008;42.664;23.372;2024-03-29T04:45:40;94763.50;;;8.81;63.31
6136;BME280;24008;42.664;23.372;2024-03-29T04:48:07;94844.56;;;9.27;63.40
6136;BME280;24008;42.664;23.372;2024-03-29T04:50:34;94870.53;;;9.51;62.87
6136;BME280;24008;42.664;23.372;2024-03-29T04:53:00;94870.81;;;9.58;62.28
6136;BME280;24008;42.664;23.372;2024-03-29T04:55:27;94748.97;;;8.72;62.73
6136;BME280;24008;42.664;23.372;2024-03-29T04:57:55;94836.13;;;9.46;62.20
6136;BME280;24008;42.664;23.372;2024-03-29T05:00:22;94875.91;;;9.58;62.15
6136;BME280;24008;42.664;23.372;2024-03-29T05:02:49;94885.38;;;9.86;61.60
6136;BME280;24008;42.664;23.372;2024-03-29T05:05:16;94820.19;;;9.53;62.84
6136;BME280;24008;42.664;23.372;2024-03-29T05:07:42;94882.13;;;10.03;61.81
6136;BME280;24008;42.664;23.372;2024-03-29T05:10:09;94881.50;;;10.11;61.73
6136;BME280;24008;42.664;23.372;2024-03-29T05:12:36;94820.56;;;9.68;60.54
6136;BME280;24008;42.664;23.372;2024-03-29T05:15:06;94894.28;;;10.30;60.14
6136;BME280;24008;42.664;23.372;2024-03-29T05:17:32;94904.75;;;10.56;60.57
6136;BME280;24008;42.664;23.372;2024-03-29T05:19:59;94790.56;;;10.94;59.20
6136;BME280;24008;42.664;23.372;2024-03-29T05:22:26;94895.69;;;12.71;56.10
6136;BME280;24008;42.664;23.372;2024-03-29T05:24:53;94840.72;;;13.25;52.62
6136;BME280;24008;42.664;23.372;2024-03-29T05:27:20;94902.47;;;14.16;51.17
6136;BME280;24008;42.664;23.372;2024-03-29T05:29:47;94800.28;;;13.94;48.47
6136;BME280;24008;42.664;23.372;2024-03-29T05:32:15;94903.59;;;15.11;48.37
6136;BME280;24008;42.664;23.372;2024-03-29T05:34:41;94854.31;;;15.77;45.57
6136;BME280;24008;42.664;23.372;2024-03-29T05:37:08;94905.16;;;17.20;43.14
6136;BME280;24008;42.664;23.372;2024-03-29T05:39:35;94821.94;;;17.40;41.10
6136;BME280;24008;42.664;23.372;2024-03-29T05:42:01;94810.22;;;18.30;40.75
6136;BME280;24008;42.664;23.372;2024-03-29T05:44:28;94903.75;;;19.88;38.38
6136;BME280;24008;42.664;23.372;2024-03-29T05:46:55;94819.56;;;19.97;36.93
6136;BME280;24008;42.664;23.372;2024-03-29T05:49:22;94909.78;;;20.89;35.69
6136;BME280;24008;42.664;23.372;2024-03-29T05:51:49;94734.16;;;20.22;35.37
6136;BME280;24008;42.664;23.372;2024-03-29T05:54:17;94891.00;;;22.04;34.70
6136;BME280;24008;42.664;23.372;2024-03-29T05:56:44;94907.88;;;21.82;35.24
6136;BME280;24008;42.664;23.372;2024-03-29T05:59:11;94705.94;;;20.78;34.58
6136;BME280;24008;42.664;23.372;2024-03-29T06:01:38;94892.59;;;22.05;35.73
6136;BME280;24008;42.664;23.372;2024-03-29T06:04:05;94835.44;;;21.79;33.49
6136;BME280;24008;42.664;23.372;2024-03-29T06:06:41;94925.38;;;22.57;33.37
6136;BME280;24008;42.664;23.372;2024-03-29T06:09:08;94925.06;;;22.79;32.61
6136;BME280;24008;42.664;23.372;2024-03-29T06:11:35;94934.84;;;23.58;31.86
6136;BME280;24008;42.664;23.372;2024-03-29T06:14:02;94859.25;;;23.69;30.91
6136;BME280;24008;42.664;23.372;2024-03-29T06:16:46;94886.94;;;24.67;29.30
6136;BME280;24008;42.664;23.372;2024-03-29T06:19:30;94905.22;;;25.08;28.12
6136;BME280;24008;42.664;23.372;2024-03-29T06:21:58;94856.78;;;25.18;28.10
6136;BME280;24008;42.664;23.372;2024-03-29T06:24:24;94907.41;;;25.23;28.49
6136;BME280;24008;42.664;23.372;2024-03-29T06:26:51;94880.31;;;24.94;28.51
6136;BME280;24008;42.664;23.372;2024-03-29T06:29:18;94941.53;;;25.40;28.39
6136;BME280;24008;42.664;23.372;2024-03-29T06:31:45;94904.00;;;25.69;28.17
6136;BME280;24008;42.664;23.372;2024-03-29T06:34:11;94933.00;;;26.43;27.33
6136;BME280;24008;42.664;23.372;2024-03-29T06:36:38;94932.97;;;26.03;27.87
6136;BME280;24008;42.664;23.372;2024-03-29T06:39:06;94938.03;;;25.81;27.38
6136;BME280;24008;42.664;23.372;2024-03-29T06:41:34;94949.81;;;25.60;28.59
6136;BME280;24008;42.664;23.372;2024-03-29T06:44:00;94943.03;;;25.59;28.19
6136;BME280;24008;42.664;23.372;2024-03-29T06:46:27;94853.25;;;25.00;28.21
6136;BME280;24008;42.664;23.372;2024-03-29T06:48:54;94948.72;;;25.68;28.25
6136;BME280;24008;42.664;23.372;2024-03-29T06:51:21;94922.31;;;25.81;26.80
6136;BME280;24008;42.664;23.372;2024-03-29T06:53:48;94900.44;;;25.52;27.84
6136;BME280;24008;42.664;23.372;2024-03-29T06:56:16;94959.28;;;26.08;27.50
6136;BME280;24008;42.664;23.372;2024-03-29T06:58:42;94950.31;;;26.20;27.28
6136;BME280;24008;42.664;23.372;2024-03-29T07:01:09;94892.81;;;25.39;27.21
6136;BME280;24008;42.664;23.372;2024-03-29T07:03:36;94766.66;;;23.90;28.06
6136;BME280;24008;42.664;23.372;2024-03-29T07:06:03;94869.66;;;24.66;28.73
6136;BME280;24008;42.664;23.372;2024-03-29T07:08:30;94961.13;;;25.61;28.69
6136;BME280;24008;42.664;23.372;2024-03-29T07:10:58;94960.63;;;26.10;27.69
6136;BME280;24008;42.664;23.372;2024-03-29T07:13:28;94960.94;;;26.94;26.81
6136;BME280;24008;42.664;23.372;2024-03-29T07:15:55;94920.28;;;26.80;26.15
6136;BME280;24008;42.664;23.372;2024-03-29T07:18:22;94973.00;;;26.38;26.22
6136;BME280;24008;42.664;23.372;2024-03-29T07:20:49;94914.66;;;25.91;26.59
6136;BME280;24008;42.664;23.372;2024-03-29T07:23:16;94964.22;;;26.33;27.50
6136;BME280;24008;42.664;23.372;2024-03-29T07:25:44;94975.44;;;26.85;26.12
6136;BME280;24008;42.664;23.372;2024-03-29T07:28:10;94937.72;;;27.19;26.18
6136;BME280;24008;42.664;23.372;2024-03-29T07:30:41;94927.31;;;27.24;25.97
6136;BME280;24008;42.664;23.372;2024-03-29T07:33:09;94913.50;;;26.84;25.64
6136;BME280;24008;42.664;23.372;2024-03-29T07:35:36;94873.03;;;25.66;26.14
6136;BME280;24008;42.664;23.372;2024-03-29T07:38:06;94971.78;;;26.58;26.75
6136;BME280;24008;42.664;23.372;2024-03-29T07:40:33;94904.97;;;26.43;25.39
6136;BME280;24008;42.664;23.372;2024-03-29T07:43:01;94962.78;;;26.82;26.21
6136;BME280;24008;42.664;23.372;2024-03-29T07:45:28;94797.94;;;26.57;26.11
6136;BME280;24008;42.664;23.372;2024-03-29T07:47:56;94964.06;;;27.24;26.16
6136;BME280;24008;42.664;23.372;2024-03-29T07:50:23;94962.63;;;27.67;26.06
6136;BME280;24008;42.664;23.372;2024-03-29T07:52:50;94866.53;;;27.33;25.01
6136;BME280;24008;42.664;23.372;2024-03-29T07:55:17;94929.06;;;27.91;24.44
6136;BME280;24008;42.664;23.372;2024-03-29T07:57:44;94964.69;;;28.04;24.34
6136;BME280;24008;42.664;23.372;2024-03-29T08:00:13;94962.31;;;26.85;26.06
6136;BME280;24008;42.664;23.372;2024-03-29T08:02:38;94944.06;;;26.62;26.54
6136;BME280;24008;42.664;23.372;2024-03-29T08:05:07;94926.56;;;26.79;26.30
6136;BME280;24008;42.664;23.372;2024-03-29T08:07:34;94947.19;;;26.75;26.58
6136;BME280;24008;42.664;23.372;2024-03-29T08:10:01;94805.75;;;25.67;25.16
6136;BME280;24008;42.664;23.372;2024-03-29T08:12:27;94969.78;;;27.21;25.92
6136;BME280;24008;42.664;23.372;2024-03-29T08:14:54;94964.22;;;27.68;25.00
6136;BME280;24008;42.664;23.372;2024-03-29T08:17:21;94931.97;;;27.73;25.11
6136;BME280;24008;42.664;23.372;2024-03-29T08:19:48;94909.19;;;27.23;24.95
6136;BME280;24008;42.664;23.372;2024-03-29T08:22:16;94955.75;;;27.83;24.74
6136;BME280;24008;42.664;23.372;2024-03-29T08:24:43;94931.34;;;27.66;26.47
6136;BME280;24008;42.664;23.372;2024-03-29T08:27:10;94848.28;;;27.81;24.81
6136;BME280;24008;42.664;23.372;2024-03-29T08:29:36;94946.41;;;28.79;24.52
6136;BME280;24008;42.664;23.372;2024-03-29T08:32:04;94951.56;;;28.96;24.39
6136;BME280;24008;42.664;23.372;2024-03-29T08:34:32;94949.50;;;28.98;25.69
6136;BME280;24008;42.664;23.372;2024-03-29T08:37:00;94948.59;;;28.87;24.77
6136;BME280;24008;42.664;23.372;2024-03-29T08:39:30;94937.56;;;29.22;23.79
6136;BME280;24008;42.664;23.372;2024-03-29T08:41:57;94926.63;;;29.03;24.63
6136;BME280;24008;42.664;23.372;2024-03-29T08:44:23;94928.00;;;29.11;23.52
6136;BME280;24008;42.664;23.372;2024-03-29T08:46:51;94899.53;;;29.03;23.42
6136;BME280;24008;42.664;23.372;2024-03-29T08:49:18;94910.66;;;29.10;23.80
6136;BME280;24008;42.664;23.372;2024-03-29T08:51:45;94932.91;;;28.97;24.54
6136;BME280;24008;42.664;23.372;2024-03-29T08:54:12;94938.03;;;29.14;23.22
6136;BME280;24008;42.664;23.372;2024-03-29T08:56:40;94886.22;;;28.83;24.09
6136;BME280;24008;42.664;23.372;2024-03-29T08:59:07;94903.28;;;28.10;23.59
6136;BME280;24008;42.664;23.372;2024-03-29T09:01:36;94894.97;;;27.96;24.30
6136;BME280;24008;42.664;23.372;2024-03-29T09:04:03;94913.50;;;28.28;23.69
6136;BME280;24008;42.664;23.372;2024-03-29T09:06:33;94916.50;;;28.63;24.11
6136;BME280;24008;42.664;23.372;2024-03-29T09:09:00;94909.66;;;29.53;23.32
6136;BME280;24008;42.664;23.372;2024-03-29T09:11:28;94852.03;;;29.25;24.26
6136;BME280;24008;42.664;23.372;2024-03-29T09:13:56;94902.63;;;29.74;23.44
6136;BME280;24008;42.664;23.372;2024-03-29T09:16:24;94900.69;;;30.01;24.22
6136;BME280;24008;42.664;23.372;2024-03-29T09:18:50;94889.00;;;29.87;21.51
6136;BME280;24008;42.664;23.372;2024-03-29T09:21:17;94868.44;;;29.84;20.90
6136;BME280;24008;42.664;23.372;2024-03-29T09:23:45;94845.38;;;29.54;23.31
6136;BME280;24008;42.664;23.372;2024-03-29T09:26:14;94892.28;;;30.09;21.65
6136;BME280;24008;42.664;23.372;2024-03-29T09:28:41;94869.06;;;30.01;21.85
6136;BME280;24008;42.664;23.372;2024-03-29T09:31:09;94873.84;;;30.20;21.79
6136;BME280;24008;42.664;23.372;2024-03-29T09:33:36;94734.22;;;28.95;21.54
6136;BME280;24008;42.664;23.372;2024-03-29T09:36:03;94867.53;;;30.21;22.26
6136;BME280;24008;42.664;23.372;2024-03-29T09:38:30;94810.03;;;30.02;21.13
6136;BME280;24008;42.664;23.372;2024-03-29T09:41:05;94819.00;;;30.06;20.46
6136;BME280;24008;42.664;23.372;2024-03-29T09:43:36;94853.69;;;29.88;20.54
6136;BME280;24008;42.664;23.372;2024-03-29T09:46:05;94709.94;;;28.88;21.79
6136;BME280;24008;42.664;23.372;2024-03-29T09:48:34;94706.09;;;28.63;21.66
6136;BME280;24008;42.664;23.372;2024-03-29T09:51:04;94859.19;;;29.34;21.21
6136;BME280;24008;42.664;23.372;2024-03-29T09:53:34;94791.69;;;28.44;20.71
6136;BME280;24008;42.664;23.372;2024-03-29T09:56:03;94640.31;;;27.57;21.86
6136;BME280;24008;42.664;23.372;2024-03-29T09:58:30;94798.75;;;28.76;21.46
6136;BME280;24008;42.664;23.372;2024-03-29T10:00:57;94801.84;;;28.94;20.68
6136;BME280;24008;42.664;23.372;2024-03-29T10:03:24;94651.97;;;27.99;20.77
6136;BME280;24008;42.664;23.372;2024-03-29T10:05:57;94778.25;;;29.15;20.77
6136;BME280;24008;42.664;23.372;2024-03-29T10:08:25;94306.13;;;26.24;21.43
6136;BME280;24008;42.664;23.372;2024-03-29T10:10:52;94843.91;;;29.79;20.62
6136;BME280;24008;42.664;23.372;2024-03-29T10:13:20;94757.69;;;29.54;20.90
6136;BME280;24008;42.664;23.372;2024-03-29T10:15:48;94844.03;;;30.04;20.79
6136;BME280;24008;42.664;23.372;2024-03-29T10:18:17;94739.22;;;29.49;20.76
6136;BME280;24008;42.664;23.372;2024-03-29T10:20:45;94835.72;;;29.75;22.00
6136;BME280;24008;42.664;23.372;2024-03-29T10:23:14;94785.44;;;29.29;22.56
6136;BME280;24008;42.664;23.372;2024-03-29T10:25:43;94700.63;;;28.33;21.93
6136;BME280;24008;42.664;23.372;2024-03-29T10:28:09;94687.13;;;27.92;22.38
6136;BME280;24008;42.664;23.372;2024-03-29T10:30:38;94773.13;;;28.24;23.04
6136;BME280;24008;42.664;23.372;2024-03-29T10:33:05;94831.25;;;28.59;23.44
6136;BME280;24008;42.664;23.372;2024-03-29T10:35:31;94745.38;;;28.11;23.05
6136;BME280;24008;42.664;23.372;2024-03-29T10:38:01;94840.91;;;28.49;23.33
6136;BME280;24008;42.664;23.372;2024-03-29T10:40:30;94784.13;;;28.21;22.70
6136;BME280;24008;42.664;23.372;2024-03-29T10:42:57;94801.50;;;28.27;22.46
6136;BME280;24008;42.664;23.372;2024-03-29T10:45:26;94563.72;;;27.12;22.04
6136;BME280;24008;42.664;23.372;2024-03-29T10:47:54;94740.22;;;28.21;22.69
6136;BME280;24008;42.664;23.372;2024-03-29T10:50:22;94546.13;;;26.64;25.29
6136;BME280;24008;42.664;23.372;2024-03-29T10:52:50;94802.78;;;28.51;23.34
6136;BME280;24008;42.664;23.372;2024-03-29T10:55:17;94716.81;;;27.66;23.85
6136;BME280;24008;42.664;23.372;2024-03-29T10:57:46;94802.28;;;28.54;24.83
6136;BME280;24008;42.664;23.372;2024-03-29T11:00:16;94781.63;;;28.14;24.25
6136;BME280;24008;42.664;23.372;2024-03-29T11:02:48;94807.75;;;27.34;25.04
6136;BME280;24008;42.664;23.372;2024-03-29T11:05:16;94733.94;;;27.08;24.06
6136;BME280;24008;42.664;23.372;2024-03-29T11:07:43;94767.84;;;27.32;23.53
6136;BME280;24008;42.664;23.372;2024-03-29T11:10:15;94803.91;;;27.58;23.55
6136;BME280;24008;42.664;23.372;2024-03-29T11:12:57;94707.06;;;26.63;25.46
6136;BME280;24008;42.664;23.372;2024-03-29T11:15:28;94795.09;;;27.09;24.71
6136;BME280;24008;42.664;23.372;2024-03-29T11:17:55;94685.03;;;26.42;24.48
6136;BME280;24008;42.664;23.372;2024-03-29T11:20:24;94792.09;;;27.00;24.62
6136;BME280;24008;42.664;23.372;2024-03-29T11:23:02;94791.19;;;26.28;24.70
6136;BME280;24008;42.664;23.372;2024-03-29T11:25:41;94726.88;;;25.35;26.02
6136;BME280;24008;42.664;23.372;2024-03-29T11:28:10;94684.78;;;24.50;26.38
6136;BME280;24008;42.664;23.372;2024-03-29T11:30:42;94730.00;;;24.62;27.16
6136;BME280;24008;42.664;23.372;2024-03-29T11:33:31;94584.91;;;23.36;27.71
6136;BME280;24008;42.664;23.372;2024-03-29T11:36:00;94788.00;;;24.29;27.76
6136;BME280;24008;42.664;23.372;2024-03-29T11:38:31;94786.66;;;24.08;28.73
6136;BME280;24008;42.664;23.372;2024-03-29T11:41:05;94731.69;;;23.61;28.43
6136;BME280;24008;42.664;23.372;2024-03-29T11:43:34;94784.72;;;23.74;28.96
6136;BME280;24008;42.664;23.372;2024-03-29T11:46:04;94776.38;;;23.53;29.36
6136;BME280;24008;42.664;23.372;2024-03-29T11:48:31;94784.91;;;23.42;29.48
6136;BME280;24008;42.664;23.372;2024-03-29T11:50:59;94753.91;;;23.16;29.76
6136;BME280;24008;42.664;23.372;2024-03-29T11:53:26;94677.84;;;22.82;30.03
6136;BME280;24008;42.664;23.372;2024-03-29T11:55:55;94731.00;;;23.18;29.95
6136;BME280;24008;42.664;23.372;2024-03-29T11:58:22;94713.63;;;23.12;30.90
6136;BME280;24008;42.664;23.372;2024-03-29T12:00:51;94675.25;;;22.82;31.10
6136;BME280;24008;42.664;23.372;2024-03-29T12:03:18;94756.06;;;23.37;32.07
6136;BME280;24008;42.664;23.372;2024-03-29T12:05:48;94737.44;;;23.15;30.25
6136;BME280;24008;42.664;23.372;2024-03-29T12:08:16;94711.91;;;23.06;30.78
6136;BME280;24008;42.664;23.372;2024-03-29T12:10:42;94702.16;;;22.94;30.78
6136;BME280;24008;42.664;23.372;2024-03-29T12:13:12;94632.16;;;22.43;31.03
6136;BME280;24008;42.664;23.372;2024-03-29T12:15:40;94586.06;;;22.25;30.91
6136;BME280;24008;42.664;23.372;2024-03-29T12:18:08;94757.78;;;23.43;31.28
6136;BME280;24008;42.664;23.372;2024-03-29T12:20:35;94673.50;;;22.94;32.07
6136;BME280;24008;42.664;23.372;2024-03-29T12:23:04;94736.19;;;23.36;30.42
6136;BME280;24008;42.664;23.372;2024-03-29T12:25:33;94754.31;;;23.49;30.08
6136;BME280;24008;42.664;23.372;2024-03-29T12:28:00;94727.38;;;23.19;30.63
6136;BME280;24008;42.664;23.372;2024-03-29T12:30:27;94696.69;;;23.03;30.58
6136;BME280;24008;42.664;23.372;2024-03-29T12:33:04;94750.69;;;23.32;30.35
6136;BME280;24008;42.664;23.372;2024-03-29T12:35:34;94610.53;;;22.43;30.84
6136;BME280;24008;42.664;23.372;2024-03-29T12:38:02;94748.81;;;23.39;31.25
6136;BME280;24008;42.664;23.372;2024-03-29T12:40:31;94554.53;;;22.15;30.72
6136;BME280;24008;42.664;23.372;2024-03-29T12:43:03;94745.03;;;23.35;30.41
6136;BME280;24008;42.664;23.372;2024-03-29T12:45:30;94543.41;;;22.08;31.03
6136;BME280;24008;42.664;23.372;2024-03-29T12:47:57;94687.91;;;22.97;31.20
6136;BME280;24008;42.664;23.372;2024-03-29T12:50:28;94680.03;;;23.04;30.71
6136;BME280;24008;42.664;23.372;2024-03-29T12:52:57;94686.41;;;22.89;30.50
6136;BME280;24008;42.664;23.372;2024-03-29T12:55:25;94737.38;;;23.22;30.54
6136;BME280;24008;42.664;23.372;2024-03-29T12:57:55;94631.16;;;22.44;30.74
6136;BME280;24008;42.664;23.372;2024-03-29T13:00:23;94745.06;;;23.17;30.93
6136;BME280;24008;42.664;23.372;2024-03-29T13:02:49;94733.03;;;23.16;30.41
6136;BME280;24008;42.664;23.372;2024-03-29T13:05:16;94748.75;;;23.09;30.70